sensor_id;sensor_type;location;lat;lon;timestamp;temperature;humidity
22923;DHT22;11627;51.322;22.816;2023-09-18T00:00:50;15.50;83.50
22923;DHT22;11627;51.322;22.816;2023-09-18T00:03:19;15.40;77.80
22923;DHT22;11627;51.322;22.816;2023-09-18T00:05:47;15.40;81.40
22923;DHT22;11627;51.322;22.816;2023-09-18T00:08:14;15.20;88.00
22923;DHT22;11627;51.322;22.816;2023-09-18T00:10:41;15.20;95.10
22923;DHT22;11627;51.322;22.816;2023-09-18T00:13:10;15.30;95.20
22923;DHT22;11627;51.322;22.816;2023-09-18T00:15:37;15.30;87.10
22923;DHT22;11627;51.322;22.816;2023-09-18T00:18:04;15.30;75.10
22923;DHT22;11627;51.322;22.816;2023-09-18T00:20:32;15.30;71.10
22923;DHT22;11627;51.322;22.816;2023-09-18T00:22:59;15.20;88.90
22923;DHT22;11627;51.322;22.816;2023-09-18T00:25:27;15.20;83.00
22923;DHT22;11627;51.322;22.816;2023-09-18T00:27:54;15.30;91.70
22923;DHT22;11627;51.322;22.816;2023-09-18T00:30:21;15.00;73.70
22923;DHT22;11627;51.322;22.816;2023-09-18T00:32:51;15.10;83.50
22923;DHT22;11627;51.322;22.816;2023-09-18T00:35:18;15.00;92.30
22923;DHT22;11627;51.322;22.816;2023-09-18T00:37:46;15.10;99.70
22923;DHT22;11627;51.322;22.816;2023-09-18T00:40:14;15.10;99.00
22923;DHT22;11627;51.322;22.816;2023-09-18T00:42:41;15.10;96.20
22923;DHT22;11627;51.322;22.816;2023-09-18T00:45:08;15.00;94.80
22923;DHT22;11627;51.322;22.816;2023-09-18T00:47:36;15.00;94.60
22923;DHT22;11627;51.322;22.816;2023-09-18T00:50:06;15.00;97.90
22923;DHT22;11627;51.322;22.816;2023-09-18T00:52:37;15.10;99.70
22923;DHT22;11627;51.322;22.816;2023-09-18T00:55:08;15.10;99.90
22923;DHT22;11627;51.322;22.816;2023-09-18T00:57:36;15.10;99.90
22923;DHT22;11627;51.322;22.816;2023-09-18T01:00:04;15.10;98.40
22923;DHT22;11627;51.322;22.816;2023-09-18T01:02:32;15.10;98.80
22923;DHT22;11627;51.322;22.816;2023-09-18T01:04:59;15.10;96.60
22923;DHT22;11627;51.322;22.816;2023-09-18T01:07:28;15.10;97.40
22923;DHT22;11627;51.322;22.816;2023-09-18T01:09:57;15.10;96.90
22923;DHT22;11627;51.322;22.816;2023-09-18T01:13:00;15.00;95.60
22923;DHT22;11627;51.322;22.816;2023-09-18T01:15:35;15.00;92.10
22923;DHT22;11627;51.322;22.816;2023-09-18T01:18:09;14.90;92.10
22923;DHT22;11627;51.322;22.816;2023-09-18T01:20:36;14.90;93.70
22923;DHT22;11627;51.322;22.816;2023-09-18T01:23:03;14.90;95.00
22923;DHT22;11627;51.322;22.816;2023-09-18T01:25:31;14.90;97.30
22923;DHT22;11627;51.322;22.816;2023-09-18T01:28:00;14.90;93.80
22923;DHT22;11627;51.322;22.816;2023-09-18T01:30:27;14.90;91.40
22923;DHT22;11627;51.322;22.816;2023-09-18T01:32:55;14.80;92.00
22923;DHT22;11627;51.322;22.816;2023-09-18T01:35:26;14.70;93.80
22923;DHT22;11627;51.322;22.816;2023-09-18T01:37:58;14.70;96.40
22923;DHT22;11627;51.322;22.816;2023-09-18T01:40:26;14.70;97.20
22923;DHT22;11627;51.322;22.816;2023-09-18T01:42:53;14.70;93.50
22923;DHT22;11627;51.322;22.816;2023-09-18T01:45:19;14.70;94.40
22923;DHT22;11627;51.322;22.816;2023-09-18T01:47:47;14.70;97.20
22923;DHT22;11627;51.322;22.816;2023-09-18T01:50:13;14.60;93.20
22923;DHT22;11627;51.322;22.816;2023-09-18T01:52:40;14.50;92.80
22923;DHT22;11627;51.322;22.816;2023-09-18T01:55:06;14.50;95.80
22923;DHT22;11627;51.322;22.816;2023-09-18T01:57:34;14.50;95.10
22923;DHT22;11627;51.322;22.816;2023-09-18T02:00:01;14.40;92.60
22923;DHT22;11627;51.322;22.816;2023-09-18T02:02:29;14.40;97.00
22923;DHT22;11627;51.322;22.816;2023-09-18T02:04:56;14.40;98.40
22923;DHT22;11627;51.322;22.816;2023-09-18T02:07:23;14.40;99.90
22923;DHT22;11627;51.322;22.816;2023-09-18T02:09:51;14.50;99.90
22923;DHT22;11627;51.322;22.816;2023-09-18T02:12:18;14.60;99.90
22923;DHT22;11627;51.322;22.816;2023-09-18T02:14:46;14.60;99.90
22923;DHT22;11627;51.322;22.816;2023-09-18T02:17:13;14.80;99.90
22923;DHT22;11627;51.322;22.816;2023-09-18T02:19:42;14.80;99.90
22923;DHT22;11627;51.322;22.816;2023-09-18T02:22:09;14.90;99.90
22923;DHT22;11627;51.322;22.816;2023-09-18T02:24:37;14.90;99.90
22923;DHT22;11627;51.322;22.816;2023-09-18T02:27:07;14.90;99.90
22923;DHT22;11627;51.322;22.816;2023-09-18T02:29:35;14.90;99.90
22923;DHT22;11627;51.322;22.816;2023-09-18T02:32:03;14.90;99.90
22923;DHT22;11627;51.322;22.816;2023-09-18T02:34:30;15.00;99.90
22923;DHT22;11627;51.322;22.816;2023-09-18T02:36:57;14.90;99.90
22923;DHT22;11627;51.322;22.816;2023-09-18T02:39:24;14.90;99.90
22923;DHT22;11627;51.322;22.816;2023-09-18T02:41:53;14.90;99.90
22923;DHT22;11627;51.322;22.816;2023-09-18T02:44:20;14.90;99.90
22923;DHT22;11627;51.322;22.816;2023-09-18T02:46:47;14.90;99.90
22923;DHT22;11627;51.322;22.816;2023-09-18T02:49:14;14.90;99.90
22923;DHT22;11627;51.322;22.816;2023-09-18T02:51:41;14.80;99.90
22923;DHT22;11627;51.322;22.816;2023-09-18T02:54:08;14.90;99.90
22923;DHT22;11627;51.322;22.816;2023-09-18T02:56:34;14.80;99.90
22923;DHT22;11627;51.322;22.816;2023-09-18T02:59:01;14.80;99.90
22923;DHT22;11627;51.322;22.816;2023-09-18T03:01:28;14.80;99.90
22923;DHT22;11627;51.322;22.816;2023-09-18T03:03:55;14.80;99.90
22923;DHT22;11627;51.322;22.816;2023-09-18T03:06:22;14.80;99.90
22923;DHT22;11627;51.322;22.816;2023-09-18T03:08:49;14.70;99.90
22923;DHT22;11627;51.322;22.816;2023-09-18T03:11:17;14.70;99.90
22923;DHT22;11627;51.322;22.816;2023-09-18T03:13:45;14.70;99.90
22923;DHT22;11627;51.322;22.816;2023-09-18T03:16:13;14.60;99.90
22923;DHT22;11627;51.322;22.816;2023-09-18T03:18:41;14.50;99.90
22923;DHT22;11627;51.322;22.816;2023-09-18T03:21:08;14.50;99.90
22923;DHT22;11627;51.322;22.816;2023-09-18T03:23:36;14.50;99.90
22923;DHT22;11627;51.322;22.816;2023-09-18T03:26:02;14.50;99.90
22923;DHT22;11627;51.322;22.816;2023-09-18T03:28:29;14.50;99.90
22923;DHT22;11627;51.322;22.816;2023-09-18T03:30:58;14.40;99.90
22923;DHT22;11627;51.322;22.816;2023-09-18T03:33:25;14.40;99.90
22923;DHT22;11627;51.322;22.816;2023-09-18T03:35:53;14.40;99.90
22923;DHT22;11627;51.322;22.816;2023-09-18T03:38:21;14.40;99.90
22923;DHT22;11627;51.322;22.816;2023-09-18T03:40:48;14.30;99.90
22923;DHT22;11627;51.322;22.816;2023-09-18T03:43:15;14.30;99.90
22923;DHT22;11627;51.322;22.816;2023-09-18T03:45:43;14.20;99.90
22923;DHT22;11627;51.322;22.816;2023-09-18T03:48:10;14.20;99.90
22923;DHT22;11627;51.322;22.816;2023-09-18T03:50:38;14.10;99.90
22923;DHT22;11627;51.322;22.816;2023-09-18T03:53:05;14.10;99.90
22923;DHT22;11627;51.322;22.816;2023-09-18T03:55:33;14.10;99.90
22923;DHT22;11627;51.322;22.816;2023-09-18T03:58:00;14.10;99.90
22923;DHT22;11627;51.322;22.816;2023-09-18T04:00:27;14.10;99.90
22923;DHT22;11627;51.322;22.816;2023-09-18T04:02:55;14.10;99.90
22923;DHT22;11627;51.322;22.816;2023-09-18T04:05:22;14.10;99.90
22923;DHT22;11627;51.322;22.816;2023-09-18T04:07:49;14.10;99.90
22923;DHT22;11627;51.322;22.816;2023-09-18T04:10:16;14.10;99.90
22923;DHT22;11627;51.322;22.816;2023-09-18T04:12:50;14.20;99.90
22923;DHT22;11627;51.322;22.816;2023-09-18T04:15:17;14.20;99.90
22923;DHT22;11627;51.322;22.816;2023-09-18T04:17:45;14.10;99.90
22923;DHT22;11627;51.322;22.816;2023-09-18T04:20:11;14.10;99.90
22923;DHT22;11627;51.322;22.816;2023-09-18T04:22:44;14.00;99.90
22923;DHT22;11627;51.322;22.816;2023-09-18T04:25:16;14.00;99.90
22923;DHT22;11627;51.322;22.816;2023-09-18T04:27:46;14.10;99.90
22923;DHT22;11627;51.322;22.816;2023-09-18T04:30:12;14.20;99.90
22923;DHT22;11627;51.322;22.816;2023-09-18T04:32:41;14.20;99.90
22923;DHT22;11627;51.322;22.816;2023-09-18T04:35:09;14.20;99.90
22923;DHT22;11627;51.322;22.816;2023-09-18T04:37:38;14.20;99.90
22923;DHT22;11627;51.322;22.816;2023-09-18T04:40:07;14.20;99.90
22923;DHT22;11627;51.322;22.816;2023-09-18T04:42:38;14.20;99.90
22923;DHT22;11627;51.322;22.816;2023-09-18T04:45:09;14.30;99.90
22923;DHT22;11627;51.322;22.816;2023-09-18T04:47:36;14.40;99.90
22923;DHT22;11627;51.322;22.816;2023-09-18T04:50:04;14.40;99.90
22923;DHT22;11627;51.322;22.816;2023-09-18T04:52:36;14.40;99.90
22923;DHT22;11627;51.322;22.816;2023-09-18T04:55:03;14.50;99.90
22923;DHT22;11627;51.322;22.816;2023-09-18T04:57:32;14.60;99.90
22923;DHT22;11627;51.322;22.816;2023-09-18T05:00:01;14.60;99.90
22923;DHT22;11627;51.322;22.816;2023-09-18T05:02:29;14.70;99.90
22923;DHT22;11627;51.322;22.816;2023-09-18T05:04:56;14.80;99.90
22923;DHT22;11627;51.322;22.816;2023-09-18T05:07:23;14.90;99.90
22923;DHT22;11627;51.322;22.816;2023-09-18T05:09:50;14.90;99.90
22923;DHT22;11627;51.322;22.816;2023-09-18T05:12:17;15.00;99.90
22923;DHT22;11627;51.322;22.816;2023-09-18T05:14:44;15.10;99.90
22923;DHT22;11627;51.322;22.816;2023-09-18T05:17:15;15.20;99.90
22923;DHT22;11627;51.322;22.816;2023-09-18T05:19:43;15.30;99.90
22923;DHT22;11627;51.322;22.816;2023-09-18T05:22:11;15.40;99.90
22923;DHT22;11627;51.322;22.816;2023-09-18T05:24:39;15.50;99.90
22923;DHT22;11627;51.322;22.816;2023-09-18T05:27:06;15.60;99.90
22923;DHT22;11627;51.322;22.816;2023-09-18T05:29:34;15.60;99.90
22923;DHT22;11627;51.322;22.816;2023-09-18T05:32:05;15.70;99.90
22923;DHT22;11627;51.322;22.816;2023-09-18T05:34:32;15.80;99.90
22923;DHT22;11627;51.322;22.816;2023-09-18T05:36:59;15.90;99.90
22923;DHT22;11627;51.322;22.816;2023-09-18T05:39:26;15.90;99.90
22923;DHT22;11627;51.322;22.816;2023-09-18T05:41:53;16.10;99.90
22923;DHT22;11627;51.322;22.816;2023-09-18T05:44:20;16.10;99.90
22923;DHT22;11627;51.322;22.816;2023-09-18T05:46:49;16.20;99.90
22923;DHT22;11627;51.322;22.816;2023-09-18T05:49:14;16.20;99.90
22923;DHT22;11627;51.322;22.816;2023-09-18T05:51:41;16.40;99.90
22923;DHT22;11627;51.322;22.816;2023-09-18T05:54:10;16.50;99.90
22923;DHT22;11627;51.322;22.816;2023-09-18T05:56:38;16.50;99.90
22923;DHT22;11627;51.322;22.816;2023-09-18T05:59:05;16.60;99.90
22923;DHT22;11627;51.322;22.816;2023-09-18T06:01:32;16.70;99.90
22923;DHT22;11627;51.322;22.816;2023-09-18T06:04:01;16.80;99.90
22923;DHT22;11627;51.322;22.816;2023-09-18T06:06:30;16.90;99.90
22923;DHT22;11627;51.322;22.816;2023-09-18T06:08:57;17.00;99.90
22923;DHT22;11627;51.322;22.816;2023-09-18T06:11:25;17.10;99.90
22923;DHT22;11627;51.322;22.816;2023-09-18T06:13:52;17.20;99.70
22923;DHT22;11627;51.322;22.816;2023-09-18T06:16:19;17.30;96.00
22923;DHT22;11627;51.322;22.816;2023-09-18T06:18:46;17.50;94.10
22923;DHT22;11627;51.322;22.816;2023-09-18T06:21:13;17.50;93.60
22923;DHT22;11627;51.322;22.816;2023-09-18T06:23:40;17.60;91.40
22923;DHT22;11627;51.322;22.816;2023-09-18T06:26:07;17.70;86.10
22923;DHT22;11627;51.322;22.816;2023-09-18T06:28:34;17.70;86.90
22923;DHT22;11627;51.322;22.816;2023-09-18T06:31:01;17.70;86.50
22923;DHT22;11627;51.322;22.816;2023-09-18T06:33:28;17.80;82.70
22923;DHT22;11627;51.322;22.816;2023-09-18T06:35:56;17.90;78.70
22923;DHT22;11627;51.322;22.816;2023-09-18T06:38:23;18.00;75.70
22923;DHT22;11627;51.322;22.816;2023-09-18T06:40:50;18.20;73.00
22923;DHT22;11627;51.322;22.816;2023-09-18T06:43:19;18.20;71.50
22923;DHT22;11627;51.322;22.816;2023-09-18T06:45:46;18.20;67.30
22923;DHT22;11627;51.322;22.816;2023-09-18T06:48:13;18.30;70.70
22923;DHT22;11627;51.322;22.816;2023-09-18T06:50:40;18.30;74.60
22923;DHT22;11627;51.322;22.816;2023-09-18T06:53:07;18.40;72.90
22923;DHT22;11627;51.322;22.816;2023-09-18T06:55:36;18.50;71.90
22923;DHT22;11627;51.322;22.816;2023-09-18T06:58:03;18.60;62.80
22923;DHT22;11627;51.322;22.816;2023-09-18T07:00:33;18.70;59.30
22923;DHT22;11627;51.322;22.816;2023-09-18T07:03:01;18.80;56.80
22923;DHT22;11627;51.322;22.816;2023-09-18T07:05:28;18.80;53.70
22923;DHT22;11627;51.322;22.816;2023-09-18T07:07:55;19.00;51.20
22923;DHT22;11627;51.322;22.816;2023-09-18T07:10:25;19.10;47.80
22923;DHT22;11627;51.322;22.816;2023-09-18T07:12:53;19.20;39.10
22923;DHT22;11627;51.322;22.816;2023-09-18T07:15:20;19.30;42.60
22923;DHT22;11627;51.322;22.816;2023-09-18T07:17:46;20.00;36.20
22923;DHT22;11627;51.322;22.816;2023-09-18T07:20:14;19.50;32.00
22923;DHT22;11627;51.322;22.816;2023-09-18T07:22:45;19.60;34.50
22923;DHT22;11627;51.322;22.816;2023-09-18T07:25:17;19.70;28.60
22923;DHT22;11627;51.322;22.816;2023-09-18T07:27:44;19.70;26.00
22923;DHT22;11627;51.322;22.816;2023-09-18T07:30:11;19.90;24.70
22923;DHT22;11627;51.322;22.816;2023-09-18T07:32:40;20.00;21.90
22923;DHT22;11627;51.322;22.816;2023-09-18T07:35:08;20.10;16.20
22923;DHT22;11627;51.322;22.816;2023-09-18T07:37:38;20.30;14.70
22923;DHT22;11627;51.322;22.816;2023-09-18T07:40:06;20.30;6.50
22923;DHT22;11627;51.322;22.816;2023-09-18T07:42:34;20.40;2.50
22923;DHT22;11627;51.322;22.816;2023-09-18T07:45:01;20.50;4.00
22923;DHT22;11627;51.322;22.816;2023-09-18T07:47:28;20.60;1.00
22923;DHT22;11627;51.322;22.816;2023-09-18T07:49:56;20.60;1.00
22923;DHT22;11627;51.322;22.816;2023-09-18T07:52:23;20.80;1.00
22923;DHT22;11627;51.322;22.816;2023-09-18T07:54:51;21.00;1.00
22923;DHT22;11627;51.322;22.816;2023-09-18T07:57:18;21.00;1.00
22923;DHT22;11627;51.322;22.816;2023-09-18T07:59:46;21.10;1.00
22923;DHT22;11627;51.322;22.816;2023-09-18T08:02:12;21.20;1.00
22923;DHT22;11627;51.322;22.816;2023-09-18T08:04:39;21.20;1.00
22923;DHT22;11627;51.322;22.816;2023-09-18T08:07:05;21.30;1.00
22923;DHT22;11627;51.322;22.816;2023-09-18T08:09:34;21.40;1.00
22923;DHT22;11627;51.322;22.816;2023-09-18T08:12:04;21.40;1.00
22923;DHT22;11627;51.322;22.816;2023-09-18T08:14:31;21.50;1.00
22923;DHT22;11627;51.322;22.816;2023-09-18T08:17:01;21.60;1.00
22923;DHT22;11627;51.322;22.816;2023-09-18T08:19:28;21.70;1.00
22923;DHT22;11627;51.322;22.816;2023-09-18T08:21:54;21.90;1.00
22923;DHT22;11627;51.322;22.816;2023-09-18T08:24:26;21.90;1.00
22923;DHT22;11627;51.322;22.816;2023-09-18T08:26:52;22.00;1.00
22923;DHT22;11627;51.322;22.816;2023-09-18T08:29:23;22.00;1.00
22923;DHT22;11627;51.322;22.816;2023-09-18T08:31:50;22.10;1.00
22923;DHT22;11627;51.322;22.816;2023-09-18T08:34:17;22.30;1.00
22923;DHT22;11627;51.322;22.816;2023-09-18T08:36:44;22.30;1.00
22923;DHT22;11627;51.322;22.816;2023-09-18T08:39:10;22.30;1.00
22923;DHT22;11627;51.322;22.816;2023-09-18T08:41:42;22.50;1.00
22923;DHT22;11627;51.322;22.816;2023-09-18T08:44:09;22.50;99.90
22923;DHT22;11627;51.322;22.816;2023-09-18T08:46:39;22.60;99.90
22923;DHT22;11627;51.322;22.816;2023-09-18T08:49:07;22.60;99.90
22923;DHT22;11627;51.322;22.816;2023-09-18T08:51:34;22.60;99.90
22923;DHT22;11627;51.322;22.816;2023-09-18T08:54:01;22.60;99.90
22923;DHT22;11627;51.322;22.816;2023-09-18T08:56:29;22.80;99.90
22923;DHT22;11627;51.322;22.816;2023-09-18T08:58:56;23.00;99.90
22923;DHT22;11627;51.322;22.816;2023-09-18T09:01:23;23.20;99.90
22923;DHT22;11627;51.322;22.816;2023-09-18T09:03:49;23.20;99.90
22923;DHT22;11627;51.322;22.816;2023-09-18T09:06:15;23.30;99.90
22923;DHT22;11627;51.322;22.816;2023-09-18T09:08:42;23.30;99.90
22923;DHT22;11627;51.322;22.816;2023-09-18T09:11:08;23.40;99.90
22923;DHT22;11627;51.322;22.816;2023-09-18T09:13:34;23.40;99.90
22923;DHT22;11627;51.322;22.816;2023-09-18T09:16:00;23.50;99.90
22923;DHT22;11627;51.322;22.816;2023-09-18T09:18:28;23.60;99.90
22923;DHT22;11627;51.322;22.816;2023-09-18T09:21:01;23.60;99.90
22923;DHT22;11627;51.322;22.816;2023-09-18T09:23:48;23.50;99.90
22923;DHT22;11627;51.322;22.816;2023-09-18T09:26:19;23.70;99.90
22923;DHT22;11627;51.322;22.816;2023-09-18T09:28:46;24.00;99.90
22923;DHT22;11627;51.322;22.816;2023-09-18T09:31:31;24.00;99.90
22923;DHT22;11627;51.322;22.816;2023-09-18T09:33:57;23.90;1.00
22923;DHT22;11627;51.322;22.816;2023-09-18T09:36:24;24.10;99.90
22923;DHT22;11627;51.322;22.816;2023-09-18T09:38:57;24.20;99.90
22923;DHT22;11627;51.322;22.816;2023-09-18T09:41:45;24.20;99.90
22923;DHT22;11627;51.322;22.816;2023-09-18T09:44:13;24.20;93.70
22923;DHT22;11627;51.322;22.816;2023-09-18T09:46:46;24.30;99.90
22923;DHT22;11627;51.322;22.816;2023-09-18T09:49:14;24.40;99.90
22923;DHT22;11627;51.322;22.816;2023-09-18T09:51:41;24.50;99.90
22923;DHT22;11627;51.322;22.816;2023-09-18T09:54:09;24.40;1.00
22923;DHT22;11627;51.322;22.816;2023-09-18T09:56:48;24.40;76.70
22923;DHT22;11627;51.322;22.816;2023-09-18T09:59:17;24.40;24.30
22923;DHT22;11627;51.322;22.816;2023-09-18T10:01:48;24.60;99.90
22923;DHT22;11627;51.322;22.816;2023-09-18T10:04:18;24.80;1.00
22923;DHT22;11627;51.322;22.816;2023-09-18T10:06:57;24.90;99.90
22923;DHT22;11627;51.322;22.816;2023-09-18T10:09:28;24.90;99.90
22923;DHT22;11627;51.322;22.816;2023-09-18T10:11:56;25.00;99.90
22923;DHT22;11627;51.322;22.816;2023-09-18T10:14:32;24.90;99.90
22923;DHT22;11627;51.322;22.816;2023-09-18T10:20:13;25.20;30.80
22923;DHT22;11627;51.322;22.816;2023-09-18T10:22:49;25.30;99.90
22923;DHT22;11627;51.322;22.816;2023-09-18T10:25:28;25.50;99.90
22923;DHT22;11627;51.322;22.816;2023-09-18T10:27:57;25.50;99.90
22923;DHT22;11627;51.322;22.816;2023-09-18T10:30:27;25.50;99.90
22923;DHT22;11627;51.322;22.816;2023-09-18T10:32:57;25.50;99.90
22923;DHT22;11627;51.322;22.816;2023-09-18T10:35:25;25.60;99.90
22923;DHT22;11627;51.322;22.816;2023-09-18T10:37:54;25.60;99.90
22923;DHT22;11627;51.322;22.816;2023-09-18T10:40:21;25.60;99.90
22923;DHT22;11627;51.322;22.816;2023-09-18T10:42:48;25.80;99.90
22923;DHT22;11627;51.322;22.816;2023-09-18T10:45:16;25.90;99.90
22923;DHT22;11627;51.322;22.816;2023-09-18T10:47:45;26.00;1.00
22923;DHT22;11627;51.322;22.816;2023-09-18T10:50:25;26.20;1.00
22923;DHT22;11627;51.322;22.816;2023-09-18T10:52:53;26.30;99.90
22923;DHT22;11627;51.322;22.816;2023-09-18T10:55:21;26.40;99.90
22923;DHT22;11627;51.322;22.816;2023-09-18T10:57:54;26.30;99.90
22923;DHT22;11627;51.322;22.816;2023-09-18T11:00:31;26.30;99.90
22923;DHT22;11627;51.322;22.816;2023-09-18T11:03:17;26.00;99.90
22923;DHT22;11627;51.322;22.816;2023-09-18T11:05:46;26.00;99.90
22923;DHT22;11627;51.322;22.816;2023-09-18T11:08:35;25.90;99.90
22923;DHT22;11627;51.322;22.816;2023-09-18T11:11:11;25.80;99.90
22923;DHT22;11627;51.322;22.816;2023-09-18T11:14:00;25.90;99.90
22923;DHT22;11627;51.322;22.816;2023-09-18T11:16:36;25.90;1.00
22923;DHT22;11627;51.322;22.816;2023-09-18T11:19:12;25.90;99.90
22923;DHT22;11627;51.322;22.816;2023-09-18T11:21:43;25.90;99.90
22923;DHT22;11627;51.322;22.816;2023-09-18T11:24:31;26.00;99.90
22923;DHT22;11627;51.322;22.816;2023-09-18T11:26:57;25.90;99.90
22923;DHT22;11627;51.322;22.816;2023-09-18T11:29:26;26.00;99.90
22923;DHT22;11627;51.322;22.816;2023-09-18T11:31:58;26.20;99.90
22923;DHT22;11627;51.322;22.816;2023-09-18T11:34:29;26.60;99.90
22923;DHT22;11627;51.322;22.816;2023-09-18T11:37:23;26.90;99.90
22923;DHT22;11627;51.322;22.816;2023-09-18T11:39:53;27.10;1.00
22923;DHT22;11627;51.322;22.816;2023-09-18T11:42:21;27.10;54.90
22923;DHT22;11627;51.322;22.816;2023-09-18T11:44:56;26.90;1.00
22923;DHT22;11627;51.322;22.816;2023-09-18T11:47:25;26.90;16.80
22923;DHT22;11627;51.322;22.816;2023-09-18T11:50:12;27.00;1.00
22923;DHT22;11627;51.322;22.816;2023-09-18T11:52:42;27.20;1.00
22923;DHT22;11627;51.322;22.816;2023-09-18T11:55:09;27.20;99.90
22923;DHT22;11627;51.322;22.816;2023-09-18T11:57:40;26.90;99.90
22923;DHT22;11627;51.322;22.816;2023-09-18T12:00:20;26.60;99.90
22923;DHT22;11627;51.322;22.816;2023-09-18T12:02:49;26.40;1.00
22923;DHT22;11627;51.322;22.816;2023-09-18T12:05:23;26.20;1.00
22923;DHT22;11627;51.322;22.816;2023-09-18T12:07:54;26.60;99.90
22923;DHT22;11627;51.322;22.816;2023-09-18T12:10:22;27.10;99.90
22923;DHT22;11627;51.322;22.816;2023-09-18T12:12:50;27.40;96.00
22923;DHT22;11627;51.322;22.816;2023-09-18T12:15:19;27.50;99.90
22923;DHT22;11627;51.322;22.816;2023-09-18T12:17:55;27.70;99.90
22923;DHT22;11627;51.322;22.816;2023-09-18T12:20:21;27.60;99.90
22923;DHT22;11627;51.322;22.816;2023-09-18T12:22:49;27.40;1.00
22923;DHT22;11627;51.322;22.816;2023-09-18T12:25:20;27.50;99.90
22923;DHT22;11627;51.322;22.816;2023-09-18T12:27:53;27.40;99.90
22923;DHT22;11627;51.322;22.816;2023-09-18T12:30:22;27.70;99.90
22923;DHT22;11627;51.322;22.816;2023-09-18T12:32:52;27.60;99.90
22923;DHT22;11627;51.322;22.816;2023-09-18T12:35:25;27.20;99.90
22923;DHT22;11627;51.322;22.816;2023-09-18T12:37:58;26.70;99.90
22923;DHT22;11627;51.322;22.816;2023-09-18T12:40:29;26.40;99.90
22923;DHT22;11627;51.322;22.816;2023-09-18T12:42:59;26.40;99.90
22923;DHT22;11627;51.322;22.816;2023-09-18T12:45:28;26.50;1.00
22923;DHT22;11627;51.322;22.816;2023-09-18T12:47:57;26.80;99.90
22923;DHT22;11627;51.322;22.816;2023-09-18T12:50:27;27.00;99.90
22923;DHT22;11627;51.322;22.816;2023-09-18T12:55:42;27.50;99.90
22923;DHT22;11627;51.322;22.816;2023-09-18T12:58:12;27.50;99.90
22923;DHT22;11627;51.322;22.816;2023-09-18T13:00:50;27.70;99.90
22923;DHT22;11627;51.322;22.816;2023-09-18T13:03:17;27.80;99.90
22923;DHT22;11627;51.322;22.816;2023-09-18T13:05:45;27.80;99.90
22923;DHT22;11627;51.322;22.816;2023-09-18T13:08:14;27.90;90.00
22923;DHT22;11627;51.322;22.816;2023-09-18T13:10:48;28.00;99.90
22923;DHT22;11627;51.322;22.816;2023-09-18T13:13:21;28.10;99.90
22923;DHT22;11627;51.322;22.816;2023-09-18T13:15:49;28.10;9.10
22923;DHT22;11627;51.322;22.816;2023-09-18T13:18:17;28.00;20.80
22923;DHT22;11627;51.322;22.816;2023-09-18T13:20:46;27.90;57.50
22923;DHT22;11627;51.322;22.816;2023-09-18T13:23:13;27.80;23.70
22923;DHT22;11627;51.322;22.816;2023-09-18T13:25:41;27.40;20.40
22923;DHT22;11627;51.322;22.816;2023-09-18T13:28:14;27.30;11.70
22923;DHT22;11627;51.322;22.816;2023-09-18T13:30:42;27.40;50.80
22923;DHT22;11627;51.322;22.816;2023-09-18T13:33:11;27.30;35.80
22923;DHT22;11627;51.322;22.816;2023-09-18T13:35:41;27.40;46.20
22923;DHT22;11627;51.322;22.816;2023-09-18T13:38:11;27.30;13.40
22923;DHT22;11627;51.322;22.816;2023-09-18T13:40:39;27.00;37.80
22923;DHT22;11627;51.322;22.816;2023-09-18T13:43:10;27.10;91.50
22923;DHT22;11627;51.322;22.816;2023-09-18T13:45:38;27.10;57.70
22923;DHT22;11627;51.322;22.816;2023-09-18T13:48:06;26.70;99.50
22923;DHT22;11627;51.322;22.816;2023-09-18T13:50:34;26.60;99.90
22923;DHT22;11627;51.322;22.816;2023-09-18T13:53:03;26.80;99.90
22923;DHT22;11627;51.322;22.816;2023-09-18T13:55:33;27.30;31.80
22923;DHT22;11627;51.322;22.816;2023-09-18T13:58:00;27.60;20.30
22923;DHT22;11627;51.322;22.816;2023-09-18T14:00:31;27.60;61.70
22923;DHT22;11627;51.322;22.816;2023-09-18T14:02:59;27.80;2.80
22923;DHT22;11627;51.322;22.816;2023-09-18T14:05:26;27.50;1.00
22923;DHT22;11627;51.322;22.816;2023-09-18T14:07:55;27.30;25.00
22923;DHT22;11627;51.322;22.816;2023-09-18T14:10:25;27.40;99.90
22923;DHT22;11627;51.322;22.816;2023-09-18T14:12:52;27.60;99.50
22923;DHT22;11627;51.322;22.816;2023-09-18T14:15:20;27.70;57.90
22923;DHT22;11627;51.322;22.816;2023-09-18T14:17:47;27.40;11.70
22923;DHT22;11627;51.322;22.816;2023-09-18T14:20:16;27.00;20.40
22923;DHT22;11627;51.322;22.816;2023-09-18T14:22:46;27.50;17.00
22923;DHT22;11627;51.322;22.816;2023-09-18T14:25:17;27.90;1.00
22923;DHT22;11627;51.322;22.816;2023-09-18T14:27:46;28.20;1.00
22923;DHT22;11627;51.322;22.816;2023-09-18T14:30:13;28.70;1.00
22923;DHT22;11627;51.322;22.816;2023-09-18T14:32:40;29.00;99.90
22923;DHT22;11627;51.322;22.816;2023-09-18T14:35:07;28.90;1.00
22923;DHT22;11627;51.322;22.816;2023-09-18T14:37:38;27.90;1.00
22923;DHT22;11627;51.322;22.816;2023-09-18T14:40:06;28.00;1.00
22923;DHT22;11627;51.322;22.816;2023-09-18T14:42:38;27.60;1.00
22923;DHT22;11627;51.322;22.816;2023-09-18T14:45:05;27.40;1.00
22923;DHT22;11627;51.322;22.816;2023-09-18T14:47:33;27.70;1.00
22923;DHT22;11627;51.322;22.816;2023-09-18T14:50:00;27.80;1.00
22923;DHT22;11627;51.322;22.816;2023-09-18T14:52:28;28.10;1.00
22923;DHT22;11627;51.322;22.816;2023-09-18T14:54:55;28.50;1.00
22923;DHT22;11627;51.322;22.816;2023-09-18T14:57:23;28.70;99.90
22923;DHT22;11627;51.322;22.816;2023-09-18T14:59:52;28.90;99.90
22923;DHT22;11627;51.322;22.816;2023-09-18T15:02:19;28.80;99.90
22923;DHT22;11627;51.322;22.816;2023-09-18T15:04:46;28.90;99.90
22923;DHT22;11627;51.322;22.816;2023-09-18T15:07:15;29.00;99.90
22923;DHT22;11627;51.322;22.816;2023-09-18T15:09:43;29.20;99.90
22923;DHT22;11627;51.322;22.816;2023-09-18T15:12:11;29.70;99.90
22923;DHT22;11627;51.322;22.816;2023-09-18T15:14:38;29.80;99.90
22923;DHT22;11627;51.322;22.816;2023-09-18T15:17:05;29.60;99.90
22923;DHT22;11627;51.322;22.816;2023-09-18T15:19:34;29.30;99.90
22923;DHT22;11627;51.322;22.816;2023-09-18T15:22:01;29.30;99.90
22923;DHT22;11627;51.322;22.816;2023-09-18T15:24:29;29.10;99.90
22923;DHT22;11627;51.322;22.816;2023-09-18T15:26:58;28.80;99.90
22923;DHT22;11627;51.322;22.816;2023-09-18T15:29:25;28.70;99.90
22923;DHT22;11627;51.322;22.816;2023-09-18T15:31:56;28.30;99.90
22923;DHT22;11627;51.322;22.816;2023-09-18T15:34:24;27.60;99.90